createdAt,value
2023-03-26T00:01:46.756Z,2.30
2023-03-26T00:04:14.567Z,1.67
2023-03-26T00:06:42.386Z,1.73
2023-03-26T00:09:13.184Z,2.53
2023-03-26T00:11:42.668Z,1.73
2023-03-26T00:14:13.854Z,1.70
2023-03-26T00:16:43.013Z,1.77
2023-03-26T00:19:11.301Z,2.13
2023-03-26T00:21:39.070Z,2.20
2023-03-26T00:24:09.478Z,2.60
2023-03-26T00:26:38.922Z,3.13
2023-03-26T00:29:09.804Z,2.27
2023-03-26T00:31:39.818Z,2.40
2023-03-26T00:34:08.462Z,2.00
2023-03-26T00:36:37.234Z,2.07
2023-03-26T00:39:06.156Z,1.80
2023-03-26T00:41:37.039Z,2.17
2023-03-26T00:44:05.092Z,2.23
2023-03-26T00:46:34.237Z,2.20
2023-03-26T00:49:03.783Z,2.90
2023-03-26T00:51:31.947Z,2.20
2023-03-26T00:53:59.714Z,2.00
2023-03-26T00:56:27.456Z,2.20
2023-03-26T00:58:55.571Z,2.60
2023-03-26T01:01:27.710Z,2.67
2023-03-26T01:04:07.441Z,2.70
2023-03-26T01:06:38.733Z,2.40
2023-03-26T01:09:14.103Z,2.50
2023-03-26T01:11:41.953Z,2.33
2023-03-26T01:14:13.188Z,2.30
2023-03-26T01:16:45.045Z,2.33
2023-03-26T01:19:17.950Z,2.90
2023-03-26T01:21:47.338Z,2.63
2023-03-26T01:24:16.445Z,2.40
2023-03-26T01:27:07.852Z,2.90
2023-03-26T01:29:42.373Z,2.80
2023-03-26T01:32:20.702Z,2.43
2023-03-26T01:34:57.327Z,2.17
2023-03-26T01:37:30.494Z,1.83
2023-03-26T01:40:07.126Z,2.13
2023-03-26T01:42:37.999Z,2.53
2023-03-26T01:45:10.495Z,3.30
2023-03-26T01:47:39.319Z,2.53
2023-03-26T01:50:08.655Z,2.63
2023-03-26T01:52:36.546Z,2.30
2023-03-26T01:55:06.639Z,3.40
2023-03-26T01:57:38.008Z,3.20
2023-03-26T02:00:14.216Z,3.10
2023-03-26T02:02:49.949Z,2.93
2023-03-26T02:05:22.149Z,3.30
2023-03-26T02:07:53.834Z,3.07
2023-03-26T02:10:28.578Z,2.93
2023-03-26T02:12:56.499Z,3.47
2023-03-26T02:15:24.572Z,2.90
2023-03-26T02:17:53.340Z,3.83
2023-03-26T02:20:22.072Z,3.17
2023-03-26T02:22:49.791Z,3.37
2023-03-26T02:25:19.394Z,3.93
2023-03-26T02:27:50.303Z,3.50
2023-03-26T02:30:20.126Z,3.53
2023-03-26T02:32:47.911Z,4.10
2023-03-26T02:35:15.774Z,4.97
2023-03-26T02:37:46.843Z,4.30
2023-03-26T02:40:14.790Z,5.27
2023-03-26T02:42:42.485Z,5.50
2023-03-26T02:45:11.620Z,5.73
2023-03-26T02:47:39.375Z,6.30
2023-03-26T02:50:09.021Z,6.90
2023-03-26T02:52:37.461Z,6.17
2023-03-26T02:55:05.360Z,7.07
2023-03-26T02:57:33.086Z,6.93
2023-03-26T03:00:02.356Z,6.30
2023-03-26T03:02:31.468Z,7.07
2023-03-26T03:05:01.563Z,8.30
2023-03-26T03:07:30.033Z,8.50
2023-03-26T03:10:03.298Z,8.87
2023-03-26T03:12:31.015Z,9.93
2023-03-26T03:14:58.716Z,10.30
2023-03-26T03:17:26.672Z,9.40
2023-03-26T03:19:55.763Z,10.50
2023-03-26T03:22:23.445Z,10.30
2023-03-26T03:24:52.036Z,9.23
2023-03-26T03:27:20.361Z,10.47
2023-03-26T03:29:48.104Z,11.67
2023-03-26T03:32:15.788Z,11.23
2023-03-26T03:34:43.434Z,10.70
2023-03-26T03:37:12.728Z,9.67
2023-03-26T03:39:40.562Z,10.07
2023-03-26T03:42:08.290Z,10.27
2023-03-26T03:44:36.161Z,10.70
2023-03-26T03:47:03.922Z,10.37
2023-03-26T03:49:31.642Z,10.50
2023-03-26T03:51:59.386Z,11.00
2023-03-26T03:54:29.340Z,9.97
2023-03-26T03:56:57.432Z,10.60
2023-03-26T03:59:25.239Z,10.40
2023-03-26T04:01:52.906Z,12.00
2023-03-26T04:04:21.985Z,10.13
2023-03-26T04:06:49.796Z,10.77
2023-03-26T04:09:17.542Z,10.63
2023-03-26T04:11:46.549Z,10.73
2023-03-26T04:14:14.221Z,10.33
2023-03-26T04:16:41.951Z,11.13
2023-03-26T04:19:09.658Z,11.23
2023-03-26T04:21:37.879Z,10.77
2023-03-26T04:24:07.192Z,9.83
2023-03-26T04:26:35.494Z,10.53
2023-03-26T04:29:06.512Z,11.77
2023-03-26T04:31:36.182Z,9.57
2023-03-26T04:34:07.777Z,9.53
2023-03-26T04:36:35.537Z,9.23
2023-03-26T04:39:05.238Z,9.20
2023-03-26T04:41:33.290Z,9.63
2023-03-26T04:44:02.020Z,10.37
2023-03-26T04:46:33.653Z,10.50
2023-03-26T04:49:02.232Z,10.57
2023-03-26T04:51:38.380Z,10.53
2023-03-26T04:54:08.161Z,9.53
2023-03-26T04:56:43.272Z,11.43
2023-03-26T04:59:14.901Z,10.83
2023-03-26T05:01:45.814Z,10.43
2023-03-26T05:04:14.090Z,10.93
2023-03-26T05:06:42.924Z,9.30
2023-03-26T05:09:11.172Z,10.23
2023-03-26T05:11:38.919Z,10.20
2023-03-26T05:14:06.747Z,10.70
2023-03-26T05:16:34.730Z,10.23
2023-03-26T05:19:03.871Z,10.40
2023-03-26T05:21:31.531Z,10.47
2023-03-26T05:23:59.410Z,10.73
2023-03-26T05:26:27.223Z,9.70
2023-03-26T05:28:54.943Z,10.07
2023-03-26T05:31:22.819Z,9.80
2023-03-26T05:33:51.592Z,9.53
2023-03-26T05:36:20.856Z,9.63
2023-03-26T05:38:49.797Z,10.60
2023-03-26T05:41:18.106Z,10.17
2023-03-26T05:43:47.199Z,11.93
2023-03-26T05:46:15.529Z,9.53
2023-03-26T05:48:43.268Z,9.13
2023-03-26T05:51:12.282Z,10.20
2023-03-26T05:53:41.345Z,9.40
2023-03-26T05:56:09.743Z,9.90
2023-03-26T05:58:37.975Z,10.80
2023-03-26T06:01:08.439Z,10.50
2023-03-26T06:03:38.208Z,10.87
2023-03-26T06:06:08.402Z,11.57
2023-03-26T06:08:36.082Z,11.87
2023-03-26T06:11:08.064Z,10.37
2023-03-26T06:13:36.079Z,11.23
2023-03-26T06:16:03.851Z,12.63
2023-03-26T06:18:31.571Z,12.40
2023-03-26T06:21:00.197Z,12.90
2023-03-26T06:23:27.910Z,15.23
2023-03-26T06:25:56.180Z,16.13
2023-03-26T06:28:25.374Z,13.53
2023-03-26T06:30:53.744Z,13.63
2023-03-26T06:33:23.470Z,11.80
2023-03-26T06:35:52.306Z,14.17
2023-03-26T06:38:20.076Z,12.97
2023-03-26T06:40:47.752Z,11.20
2023-03-26T06:43:15.404Z,11.67
2023-03-26T06:45:44.435Z,10.30
2023-03-26T06:48:12.109Z,9.60
2023-03-26T06:50:39.813Z,10.77
2023-03-26T06:53:07.520Z,10.40
2023-03-26T06:55:35.211Z,10.30
2023-03-26T06:58:02.876Z,9.80
2023-03-26T07:00:30.596Z,9.00
2023-03-26T07:02:59.813Z,9.33
2023-03-26T07:05:27.490Z,9.20
2023-03-26T07:07:55.352Z,11.37
2023-03-26T07:10:23.044Z,9.30
2023-03-26T07:12:50.721Z,8.33
2023-03-26T07:15:18.454Z,9.57
2023-03-26T07:17:46.215Z,9.47
2023-03-26T07:20:15.413Z,8.07
2023-03-26T07:22:43.622Z,6.00
2023-03-26T07:25:13.032Z,5.93
2023-03-26T07:27:48.296Z,6.53
2023-03-26T07:30:18.401Z,5.60
2023-03-26T07:32:51.167Z,5.80
2023-03-26T07:35:23.573Z,5.27
2023-03-26T07:38:01.780Z,5.73
2023-03-26T07:40:41.332Z,4.43
2023-03-26T07:43:15.775Z,4.67
2023-03-26T07:45:44.865Z,4.90
2023-03-26T07:48:18.099Z,5.60
2023-03-26T07:50:48.465Z,5.50
2023-03-26T07:53:16.578Z,3.17
2023-03-26T07:55:52.116Z,4.60
2023-03-26T07:58:34.952Z,3.53
2023-03-26T08:01:06.194Z,3.90
2023-03-26T08:03:47.322Z,4.37
2023-03-26T08:06:20.456Z,3.93
2023-03-26T08:08:55.113Z,4.40
2023-03-26T08:11:32.896Z,4.43
2023-03-26T08:14:15.340Z,4.37
2023-03-26T08:16:47.862Z,5.03
2023-03-26T08:19:29.809Z,5.03
2023-03-26T08:22:02.134Z,4.67
2023-03-26T08:24:37.009Z,4.03
2023-03-26T08:27:13.430Z,4.40
2023-03-26T08:29:45.275Z,5.03
2023-03-26T08:32:16.009Z,4.03
2023-03-26T08:34:43.742Z,3.53
2023-03-26T08:37:12.835Z,3.37
2023-03-26T08:39:42.456Z,5.20
2023-03-26T08:42:45.982Z,3.63
2023-03-26T08:45:41.491Z,3.10
2023-03-26T08:48:44.796Z,3.70
2023-03-26T08:51:40.603Z,3.80
2023-03-26T08:54:40.775Z,3.73
2023-03-26T08:57:34.478Z,3.40
2023-03-26T09:00:17.097Z,3.60
2023-03-26T09:03:01.473Z,3.77
2023-03-26T09:06:01.219Z,3.20
2023-03-26T09:09:00.796Z,3.43
2023-03-26T09:12:28.287Z,3.17
2023-03-26T09:15:31.921Z,3.30
2023-03-26T09:18:43.960Z,2.73
2023-03-26T09:21:28.609Z,4.17
2023-03-26T09:24:25.479Z,3.43
2023-03-26T09:27:01.659Z,3.20
2023-03-26T09:29:56.186Z,4.03
2023-03-26T09:32:58.188Z,2.87
2023-03-26T09:35:53.741Z,2.77
2023-03-26T09:38:38.443Z,3.13
2023-03-26T09:41:12.074Z,2.83
2023-03-26T09:44:30.376Z,3.40
2023-03-26T09:47:12.605Z,3.00
2023-03-26T09:49:47.930Z,3.30
2023-03-26T09:52:37.856Z,2.70
2023-03-26T09:55:22.762Z,3.37
2023-03-26T09:58:30.345Z,4.40
2023-03-26T10:01:01.022Z,3.30
2023-03-26T10:03:36.035Z,3.73
2023-03-26T10:06:25.823Z,3.63
2023-03-26T10:09:10.434Z,3.23
2023-03-26T10:12:04.527Z,4.10
2023-03-26T10:14:36.538Z,4.03
2023-03-26T10:17:12.742Z,4.13
2023-03-26T10:19:49.677Z,3.57
2023-03-26T10:22:32.736Z,3.03
2023-03-26T10:25:14.132Z,3.13
2023-03-26T10:27:49.280Z,4.37
2023-03-26T10:30:30.472Z,3.83
2023-03-26T10:33:03.167Z,3.87
2023-03-26T10:35:41.659Z,4.27
2023-03-26T10:38:19.967Z,3.87
2023-03-26T10:40:59.087Z,3.10
2023-03-26T10:43:54.634Z,3.73
2023-03-26T10:46:48.466Z,3.50
2023-03-26T10:49:36.179Z,4.33
2023-03-26T10:52:05.117Z,3.00
2023-03-26T10:54:43.738Z,4.00
2023-03-26T10:57:21.319Z,4.33
2023-03-26T10:59:49.021Z,4.20
2023-03-26T11:02:30.523Z,2.23
2023-03-26T11:05:10.131Z,2.73
2023-03-26T11:07:41.573Z,3.43
2023-03-26T11:10:14.909Z,3.70
2023-03-26T11:12:46.122Z,4.47
2023-03-26T11:15:21.773Z,3.80
2023-03-26T11:17:58.355Z,2.97
2023-03-26T11:20:33.848Z,3.10
2023-03-26T11:23:22.852Z,3.53
2023-03-26T11:26:12.071Z,4.03
2023-03-26T11:29:31.135Z,3.00
2023-03-26T11:32:04.901Z,4.27
2023-03-26T11:34:37.045Z,3.10
2023-03-26T11:37:08.049Z,2.70
2023-03-26T11:39:42.838Z,3.43
2023-03-26T11:42:14.333Z,4.40
2023-03-26T11:44:45.515Z,4.33
2023-03-26T11:47:17.507Z,3.17
2023-03-26T11:49:45.800Z,5.73
2023-03-26T11:52:15.655Z,2.47
2023-03-26T11:54:43.458Z,3.50
2023-03-26T11:57:17.275Z,2.37
2023-03-26T11:59:56.576Z,3.30
2023-03-26T12:02:32.288Z,3.03
2023-03-26T12:05:19.332Z,2.90
2023-03-26T12:07:51.207Z,3.73
2023-03-26T12:10:25.062Z,3.17
2023-03-26T12:12:56.340Z,2.50
2023-03-26T12:15:24.149Z,2.33
2023-03-26T12:17:56.097Z,2.17
2023-03-26T12:20:35.898Z,2.20
2023-03-26T12:23:04.994Z,2.63
2023-03-26T12:25:34.040Z,2.37
2023-03-26T12:28:05.019Z,5.93
2023-03-26T12:30:34.800Z,2.73
2023-03-26T12:33:05.536Z,2.50
2023-03-26T12:35:34.814Z,2.60
2023-03-26T12:38:24.183Z,2.30
2023-03-26T12:41:06.663Z,2.60
2023-03-26T12:44:48.826Z,2.73
2023-03-26T12:47:58.451Z,2.10
2023-03-26T12:49:19.127Z,2.97
2023-03-26T12:51:49.973Z,2.80
2023-03-26T12:54:25.935Z,1.90
2023-03-26T12:57:12.417Z,2.33
2023-03-26T12:59:52.782Z,2.90
2023-03-26T13:02:44.892Z,2.23
2023-03-26T13:05:28.397Z,2.40
2023-03-26T13:08:05.280Z,1.93
2023-03-26T13:10:43.089Z,3.10
2023-03-26T13:13:37.500Z,2.50
2023-03-26T13:16:11.212Z,2.43
2023-03-26T13:18:45.430Z,2.23
2023-03-26T13:21:19.271Z,2.53
2023-03-26T13:23:51.443Z,2.90
2023-03-26T13:26:29.890Z,2.40
2023-03-26T13:29:02.612Z,2.17
2023-03-26T13:31:35.011Z,2.60
2023-03-26T13:34:11.243Z,2.40
2023-03-26T13:36:46.701Z,3.67
2023-03-26T13:39:28.803Z,3.50
2023-03-26T13:42:22.562Z,2.70
2023-03-26T13:45:05.125Z,2.60
2023-03-26T13:47:37.780Z,3.37
2023-03-26T13:50:09.866Z,2.30
2023-03-26T13:52:42.716Z,2.60
2023-03-26T13:55:21.219Z,2.10
2023-03-26T13:57:53.474Z,2.23
2023-03-26T14:00:26.275Z,1.97
2023-03-26T14:02:58.152Z,2.50
2023-03-26T14:05:29.099Z,2.70
2023-03-26T14:08:01.716Z,2.80
2023-03-26T14:10:34.090Z,2.80
2023-03-26T14:13:04.279Z,2.63
2023-03-26T14:15:34.091Z,3.03
2023-03-26T14:18:08.184Z,2.70
2023-03-26T14:20:59.526Z,2.37
2023-03-26T14:23:39.144Z,2.00
2023-03-26T14:26:15.780Z,1.93
2023-03-26T14:29:10.168Z,1.50
2023-03-26T14:31:40.206Z,2.10
2023-03-26T14:34:25.798Z,2.50
2023-03-26T14:37:10.679Z,2.40
2023-03-26T14:40:14.621Z,2.60
2023-03-26T14:42:44.124Z,3.00
2023-03-26T14:45:36.435Z,2.17
2023-03-26T14:48:39.005Z,2.50
2023-03-26T14:51:16.537Z,2.57
2023-03-26T14:53:45.893Z,2.63
2023-03-26T14:56:38.509Z,3.13
2023-03-26T14:59:41.721Z,2.23
2023-03-26T15:02:51.573Z,1.93
2023-03-26T15:05:41.905Z,2.67
2023-03-26T15:08:36.091Z,2.40
2023-03-26T15:11:18.527Z,3.77
2023-03-26T15:13:55.173Z,2.20
2023-03-26T15:16:42.860Z,3.10
2023-03-26T15:19:44.052Z,2.57
2023-03-26T15:22:32.166Z,2.77
2023-03-26T15:25:34.160Z,3.50
2023-03-26T15:28:39.791Z,2.30
2023-03-26T15:31:18.612Z,3.83
2023-03-26T15:34:01.780Z,2.57
2023-03-26T15:37:05.196Z,3.83
2023-03-26T15:39:58.582Z,3.00
2023-03-26T15:42:32.658Z,3.47
2023-03-26T15:45:16.685Z,2.20
2023-03-26T15:47:52.383Z,1.93
2023-03-26T15:50:30.711Z,2.67
2023-03-26T15:53:07.662Z,2.20
2023-03-26T15:55:42.129Z,1.70
2023-03-26T15:58:16.986Z,1.70
2023-03-26T16:00:56.234Z,1.47
2023-03-26T16:03:31.895Z,2.40
2023-03-26T16:06:21.870Z,1.80
2023-03-26T16:08:54.943Z,2.70
2023-03-26T16:11:44.283Z,3.23
2023-03-26T16:14:20.091Z,3.60
2023-03-26T16:16:57.572Z,3.07
2023-03-26T16:19:41.143Z,1.97
2023-03-26T16:22:14.611Z,2.23
2023-03-26T16:24:46.526Z,2.10
2023-03-26T16:27:33.540Z,3.47
2023-03-26T16:30:19.485Z,3.03
2023-03-26T16:32:49.327Z,2.40
2023-03-26T16:35:58.684Z,2.87
2023-03-26T16:38:27.342Z,2.40
2023-03-26T16:41:00.554Z,2.77
2023-03-26T16:43:57.096Z,2.27
2023-03-26T16:46:35.612Z,3.80
2023-03-26T16:49:11.558Z,2.23
2023-03-26T16:51:54.581Z,2.63
2023-03-26T16:54:26.981Z,2.30
2023-03-26T16:57:01.797Z,2.60
2023-03-26T17:00:06.334Z,2.07
2023-03-26T17:02:47.989Z,1.40
2023-03-26T17:05:21.096Z,3.57
2023-03-26T17:07:53.973Z,1.63
2023-03-26T17:10:30.853Z,1.80
2023-03-26T17:13:04.611Z,2.97
2023-03-26T17:15:37.536Z,1.83
2023-03-26T17:18:26.348Z,3.93
2023-03-26T17:21:01.096Z,2.80
2023-03-26T17:23:39.057Z,2.93
2023-03-26T17:26:12.534Z,3.60
2023-03-26T17:28:55.280Z,2.10
2023-03-26T17:31:28.441Z,1.60
2023-03-26T17:34:33.418Z,2.63
2023-03-26T17:37:02.059Z,1.80
2023-03-26T17:40:12.435Z,1.70
2023-03-26T17:42:40.385Z,2.00
2023-03-26T17:45:09.809Z,2.37
2023-03-26T17:47:39.863Z,2.10
2023-03-26T17:50:16.198Z,2.40
2023-03-26T17:52:56.756Z,2.27
2023-03-26T17:55:31.510Z,1.33
2023-03-26T17:58:00.835Z,2.33
2023-03-26T18:00:31.227Z,3.40
2023-03-26T18:03:02.283Z,3.00
2023-03-26T18:05:32.217Z,3.03
2023-03-26T18:08:16.086Z,4.83
2023-03-26T18:11:08.949Z,3.27
2023-03-26T18:13:47.978Z,3.33
2023-03-26T18:16:16.798Z,4.23
2023-03-26T18:18:50.134Z,3.50
2023-03-26T18:21:24.065Z,2.77
2023-03-26T18:23:52.424Z,2.07
2023-03-26T18:26:23.133Z,2.83
2023-03-26T18:28:52.895Z,2.23
2023-03-26T18:31:24.109Z,3.10
2023-03-26T18:33:55.660Z,2.97
2023-03-26T18:36:25.908Z,3.60
2023-03-26T18:38:57.684Z,2.60
2023-03-26T18:41:28.543Z,3.77
2023-03-26T18:43:57.475Z,3.67
2023-03-26T18:46:25.784Z,2.07
2023-03-26T18:48:55.625Z,1.97
2023-03-26T18:51:27.502Z,2.70
2023-03-26T18:53:57.211Z,3.10
2023-03-26T18:56:33.657Z,3.00
2023-03-26T18:59:03.144Z,3.03
2023-03-26T19:01:32.128Z,2.70
2023-03-26T19:04:02.226Z,3.90
2023-03-26T19:06:35.703Z,1.90
2023-03-26T19:09:13.495Z,2.07
2023-03-26T19:11:50.059Z,2.70
2023-03-26T19:14:20.150Z,1.90
2023-03-26T19:16:50.726Z,2.43
2023-03-26T19:19:23.026Z,2.43
2023-03-26T19:21:52.439Z,2.00
2023-03-26T19:24:21.105Z,2.93
2023-03-26T19:26:49.455Z,2.47
2023-03-26T19:29:20.274Z,2.27
2023-03-26T19:31:52.073Z,2.53
2023-03-26T19:34:26.238Z,2.47
2023-03-26T19:36:59.444Z,3.03
2023-03-26T19:42:27.591Z,2.27
2023-03-26T19:45:16.348Z,2.43
2023-03-26T19:47:52.176Z,1.53
2023-03-26T19:50:25.573Z,4.40
2023-03-26T19:51:18.069Z,3.33
2023-03-26T19:53:16.884Z,2.57
2023-03-26T19:55:54.286Z,3.07
2023-03-26T19:58:22.098Z,2.87
2023-03-26T20:00:49.952Z,3.83
2023-03-26T20:03:20.088Z,3.17
2023-03-26T20:05:47.906Z,2.00
2023-03-26T20:08:17.354Z,3.70
2023-03-26T20:10:45.012Z,2.63
2023-03-26T20:13:17.282Z,3.23
2023-03-26T20:15:49.164Z,2.67
2023-03-26T20:18:33.966Z,2.80
2023-03-26T20:21:01.710Z,2.10
2023-03-26T20:23:30.734Z,2.23
2023-03-26T20:25:58.682Z,2.20
2023-03-26T20:28:26.363Z,1.97
2023-03-26T20:30:54.671Z,2.47
2023-03-26T20:33:26.664Z,2.23
2023-03-26T20:35:55.332Z,2.37
2023-03-26T20:38:36.623Z,2.30
2023-03-26T20:41:11.200Z,2.40
2023-03-26T20:43:38.922Z,2.43
2023-03-26T20:46:07.273Z,4.00
2023-03-26T20:48:35.441Z,2.70
2023-03-26T20:51:03.450Z,2.83
2023-03-26T20:53:31.502Z,2.20
2023-03-26T20:55:59.989Z,2.37
2023-03-26T20:58:30.714Z,2.40
2023-03-26T21:01:01.359Z,2.80
2023-03-26T21:03:29.278Z,2.67
2023-03-26T21:06:00.865Z,2.60
2023-03-26T21:08:35.070Z,3.27
2023-03-26T21:11:03.817Z,2.50
2023-03-26T21:13:38.339Z,3.37
2023-03-26T21:16:08.190Z,2.37
2023-03-26T21:18:36.835Z,3.40
2023-03-26T21:21:21.138Z,2.13
2023-03-26T21:23:57.831Z,3.33
2023-03-26T21:26:29.880Z,3.47
2023-03-26T21:28:59.612Z,2.30
2023-03-26T21:31:30.831Z,2.07
2023-03-26T21:33:59.082Z,2.20
2023-03-26T21:36:28.095Z,2.40
2023-03-26T21:38:56.441Z,2.40
2023-03-26T21:41:35.797Z,2.23
2023-03-26T21:44:05.323Z,1.63
2023-03-26T21:46:33.772Z,2.80
2023-03-26T21:49:02.064Z,3.33
2023-03-26T21:51:30.304Z,2.40
2023-03-26T21:53:58.481Z,2.17
2023-03-26T21:56:38.511Z,2.13
2023-03-26T21:59:11.824Z,2.57
2023-03-26T22:01:44.787Z,2.37
2023-03-26T22:04:15.376Z,4.83
2023-03-26T22:06:46.734Z,2.10
2023-03-26T22:09:18.432Z,2.13
2023-03-26T22:11:48.259Z,2.00
2023-03-26T22:14:17.636Z,3.60
2023-03-26T22:16:45.340Z,2.07
2023-03-26T22:19:13.758Z,2.57
2023-03-26T22:21:41.456Z,2.40
2023-03-26T22:24:09.306Z,2.00
2023-03-26T22:26:37.579Z,2.07
2023-03-26T22:29:05.983Z,2.50
2023-03-26T22:31:36.109Z,3.00
2023-03-26T22:34:03.921Z,1.77
2023-03-26T22:36:32.127Z,2.70
2023-03-26T22:38:59.880Z,2.47
2023-03-26T22:41:29.556Z,2.30
2023-03-26T22:43:59.628Z,1.90
2023-03-26T22:46:31.087Z,2.67
2023-03-26T22:49:00.495Z,2.93
2023-03-26T22:51:29.496Z,3.07
2023-03-26T22:53:57.417Z,3.27
2023-03-26T22:56:25.111Z,2.03
2023-03-26T22:58:52.852Z,2.37
2023-03-26T23:01:22.821Z,3.10
2023-03-26T23:03:51.016Z,2.30
2023-03-26T23:06:21.144Z,2.83
2023-03-26T23:08:48.831Z,2.30
2023-03-26T23:11:18.201Z,2.40
2023-03-26T23:13:47.455Z,2.43
2023-03-26T23:16:16.930Z,3.33
2023-03-26T23:18:44.982Z,2.77
2023-03-26T23:21:15.045Z,2.30
2023-03-26T23:23:44.480Z,2.80
2023-03-26T23:26:13.551Z,3.00
2023-03-26T23:28:41.626Z,2.13
2023-03-26T23:31:12.239Z,2.63
2023-03-26T23:33:45.570Z,2.43
2023-03-26T23:36:17.522Z,2.83
2023-03-26T23:38:47.872Z,3.00
2023-03-26T23:41:17.237Z,2.73
2023-03-26T23:43:53.424Z,2.40
2023-03-26T23:46:23.634Z,2.30
2023-03-26T23:48:52.062Z,2.90
2023-03-26T23:51:20.509Z,2.17
2023-03-26T23:53:50.116Z,2.80
2023-03-26T23:56:17.971Z,2.13
2023-03-26T23:58:45.687Z,2.83
